sensor_id;sensor_type;location;lat;lon;timestamp;pressure;altitude;pressure_sealevel;temperature;humidity
75543;BME280;64129;53.508;10.476;2022-12-29T00:02:15;99676.31;;;7.44;90.02
75543;BME280;64129;53.508;10.476;2022-12-29T00:04:42;99678.09;;;7.44;90.03
75543;BME280;64129;53.508;10.476;2022-12-29T00:07:09;99671.72;;;7.51;89.54
75543;BME280;64129;53.508;10.476;2022-12-29T00:09:36;99658.56;;;7.49;89.86
75543;BME280;64129;53.508;10.476;2022-12-29T00:12:03;99641.66;;;7.55;89.51
75543;BME280;64129;53.508;10.476;2022-12-29T00:14:30;99659.28;;;7.55;90.34
75543;BME280;64129;53.508;10.476;2022-12-29T00:17:15;99656.69;;;7.53;90.02
75543;BME280;64129;53.508;10.476;2022-12-29T00:19:42;99656.56;;;7.58;90.23
75543;BME280;64129;53.508;10.476;2022-12-29T00:22:27;99656.47;;;7.61;89.52
75543;BME280;64129;53.508;10.476;2022-12-29T00:25:13;99666.19;;;7.60;89.99
75543;BME280;64129;53.508;10.476;2022-12-29T00:27:58;99663.34;;;7.68;89.66
75543;BME280;64129;53.508;10.476;2022-12-29T00:30:43;99653.53;;;7.71;89.46
75543;BME280;64129;53.508;10.476;2022-12-29T00:33:31;99650.06;;;7.69;89.87
75543;BME280;64129;53.508;10.476;2022-12-29T00:36:46;99661.47;;;7.71;89.65
75543;BME280;64129;53.508;10.476;2022-12-29T00:39:14;99641.19;;;7.72;89.93
75543;BME280;64129;53.508;10.476;2022-12-29T00:42:05;99651.72;;;7.73;89.93
75543;BME280;64129;53.508;10.476;2022-12-29T00:45:06;99642.78;;;7.77;89.58
75543;BME280;64129;53.508;10.476;2022-12-29T00:47:33;99639.22;;;7.78;89.55
75543;BME280;64129;53.508;10.476;2022-12-29T00:49:59;99626.91;;;7.77;89.75
75543;BME280;64129;53.508;10.476;2022-12-29T00:52:26;99636.56;;;7.78;89.53
75543;BME280;64129;53.508;10.476;2022-12-29T00:54:52;99631.16;;;7.83;89.77
75543;BME280;64129;53.508;10.476;2022-12-29T00:57:19;99621.44;;;7.83;89.72
75543;BME280;64129;53.508;10.476;2022-12-29T00:59:45;99631.81;;;7.90;89.23
75543;BME280;64129;53.508;10.476;2022-12-29T01:02:14;99635.38;;;7.89;89.50
75543;BME280;64129;53.508;10.476;2022-12-29T01:04:41;99636.25;;;7.89;89.12
75543;BME280;64129;53.508;10.476;2022-12-29T01:07:07;99630.91;;;7.91;89.05
75543;BME280;64129;53.508;10.476;2022-12-29T01:09:36;99623.03;;;7.89;89.06
75543;BME280;64129;53.508;10.476;2022-12-29T01:12:21;99624.63;;;7.95;88.99
75543;BME280;64129;53.508;10.476;2022-12-29T01:15:10;99626.19;;;8.02;88.88
75543;BME280;64129;53.508;10.476;2022-12-29T01:17:36;99614.66;;;8.04;88.52
75543;BME280;64129;53.508;10.476;2022-12-29T01:20:03;99609.41;;;8.03;88.92
75543;BME280;64129;53.508;10.476;2022-12-29T01:22:30;99609.09;;;8.12;88.63
75543;BME280;64129;53.508;10.476;2022-12-29T01:24:56;99598.53;;;8.12;88.68
75543;BME280;64129;53.508;10.476;2022-12-29T01:27:23;99597.59;;;8.13;88.66
75543;BME280;64129;53.508;10.476;2022-12-29T01:29:50;99601.03;;;8.17;88.62
75543;BME280;64129;53.508;10.476;2022-12-29T01:32:16;99585.88;;;8.22;88.55
75543;BME280;64129;53.508;10.476;2022-12-29T01:34:43;99583.06;;;8.26;88.18
75543;BME280;64129;53.508;10.476;2022-12-29T01:37:09;99586.69;;;8.24;88.16
75543;BME280;64129;53.508;10.476;2022-12-29T01:39:36;99581.44;;;8.22;88.44
75543;BME280;64129;53.508;10.476;2022-12-29T01:42:02;99572.69;;;8.20;88.27
75543;BME280;64129;53.508;10.476;2022-12-29T01:47:21;99576.03;;;8.25;88.42
75543;BME280;64129;53.508;10.476;2022-12-29T01:49:51;99575.13;;;8.26;88.02
75543;BME280;64129;53.508;10.476;2022-12-29T01:52:19;99565.47;;;8.25;88.33
75543;BME280;64129;53.508;10.476;2022-12-29T01:54:50;99569.84;;;8.26;88.13
75543;BME280;64129;53.508;10.476;2022-12-29T01:57:24;99566.16;;;8.30;88.05
75543;BME280;64129;53.508;10.476;2022-12-29T01:59:56;99561.69;;;8.32;88.22
75543;BME280;64129;53.508;10.476;2022-12-29T02:02:26;99551.22;;;8.29;88.55
75543;BME280;64129;53.508;10.476;2022-12-29T02:04:58;99554.88;;;8.25;88.98
75543;BME280;64129;53.508;10.476;2022-12-29T02:07:29;99558.56;;;8.21;89.71
75543;BME280;64129;53.508;10.476;2022-12-29T02:09:56;99544.19;;;8.28;89.47
75543;BME280;64129;53.508;10.476;2022-12-29T02:12:23;99546.03;;;8.26;89.48
75543;BME280;64129;53.508;10.476;2022-12-29T02:14:55;99561.81;;;8.29;89.29
75543;BME280;64129;53.508;10.476;2022-12-29T02:17:53;99540.38;;;8.38;89.05
75543;BME280;64129;53.508;10.476;2022-12-29T02:32:38;99526.19;;;8.41;88.74
75543;BME280;64129;53.508;10.476;2022-12-29T02:35:32;99532.19;;;8.46;89.17
75543;BME280;64129;53.508;10.476;2022-12-29T02:38:12;99532.06;;;8.49;88.73
75543;BME280;64129;53.508;10.476;2022-12-29T02:40:48;99525.91;;;8.49;88.52
75543;BME280;64129;53.508;10.476;2022-12-29T02:43:39;99510.03;;;8.49;89.11
75543;BME280;64129;53.508;10.476;2022-12-29T02:46:21;99516.19;;;8.49;89.31
75543;BME280;64129;53.508;10.476;2022-12-29T02:49:22;99515.16;;;8.53;89.64
75543;BME280;64129;53.508;10.476;2022-12-29T02:52:03;99519.53;;;8.54;89.05
75543;BME280;64129;53.508;10.476;2022-12-29T02:54:32;99514.34;;;8.51;89.22
75543;BME280;64129;53.508;10.476;2022-12-29T03:00:09;99511.53;;;8.56;88.97
75543;BME280;64129;53.508;10.476;2022-12-29T03:05:56;99510.56;;;8.58;88.68
75543;BME280;64129;53.508;10.476;2022-12-29T03:08:37;99501.06;;;8.53;88.79
75543;BME280;64129;53.508;10.476;2022-12-29T03:11:12;99490.03;;;8.65;88.50
75543;BME280;64129;53.508;10.476;2022-12-29T03:16:59;99489.28;;;8.61;89.02
75543;BME280;64129;53.508;10.476;2022-12-29T03:19:35;99493.72;;;8.61;88.94
75543;BME280;64129;53.508;10.476;2022-12-29T03:22:07;99482.28;;;8.60;88.94
75543;BME280;64129;53.508;10.476;2022-12-29T03:27:40;99484.75;;;8.65;88.16
75543;BME280;64129;53.508;10.476;2022-12-29T03:30:07;99468.66;;;8.71;88.16
75543;BME280;64129;53.508;10.476;2022-12-29T03:32:46;99475.47;;;8.78;87.91
75543;BME280;64129;53.508;10.476;2022-12-29T03:35:16;99471.25;;;8.72;88.02
75543;BME280;64129;53.508;10.476;2022-12-29T03:37:55;99460.63;;;8.74;87.89
75543;BME280;64129;53.508;10.476;2022-12-29T03:40:26;99454.41;;;8.75;88.09
75543;BME280;64129;53.508;10.476;2022-12-29T03:42:54;99465.78;;;8.77;87.31
75543;BME280;64129;53.508;10.476;2022-12-29T03:45:21;99449.78;;;8.80;87.48
75543;BME280;64129;53.508;10.476;2022-12-29T03:47:48;99452.31;;;8.83;87.01
75543;BME280;64129;53.508;10.476;2022-12-29T03:50:16;99452.31;;;8.83;87.13
75543;BME280;64129;53.508;10.476;2022-12-29T03:52:42;99458.47;;;8.84;87.02
75543;BME280;64129;53.508;10.476;2022-12-29T03:55:09;99438.06;;;8.87;87.08
75543;BME280;64129;53.508;10.476;2022-12-29T03:57:37;99435.16;;;8.93;86.40
75543;BME280;64129;53.508;10.476;2022-12-29T04:00:07;99425.50;;;8.92;86.56
75543;BME280;64129;53.508;10.476;2022-12-29T04:02:47;99427.09;;;8.96;86.54
75543;BME280;64129;53.508;10.476;2022-12-29T04:05:19;99421.81;;;8.96;86.55
75543;BME280;64129;53.508;10.476;2022-12-29T04:07:47;99429.00;;;8.93;86.75
75543;BME280;64129;53.508;10.476;2022-12-29T04:10:14;99415.16;;;8.86;86.63
75543;BME280;64129;53.508;10.476;2022-12-29T04:12:40;99420.31;;;8.89;86.83
75543;BME280;64129;53.508;10.476;2022-12-29T04:15:09;99421.19;;;8.90;86.33
75543;BME280;64129;53.508;10.476;2022-12-29T04:17:35;99424.00;;;8.85;86.61
75543;BME280;64129;53.508;10.476;2022-12-29T04:20:03;99425.50;;;8.92;86.73
75543;BME280;64129;53.508;10.476;2022-12-29T04:23:03;99429.13;;;8.90;86.74
75543;BME280;64129;53.508;10.476;2022-12-29T04:25:32;99423.66;;;8.94;86.53
75543;BME280;64129;53.508;10.476;2022-12-29T04:27:59;99426.06;;;9.00;86.47
75543;BME280;64129;53.508;10.476;2022-12-29T04:30:44;99422.72;;;8.95;86.68
75543;BME280;64129;53.508;10.476;2022-12-29T04:33:23;99427.78;;;9.01;85.99
75543;BME280;64129;53.508;10.476;2022-12-29T04:35:50;99423.41;;;9.00;86.56
75543;BME280;64129;53.508;10.476;2022-12-29T04:38:21;99425.13;;;9.01;86.31
75543;BME280;64129;53.508;10.476;2022-12-29T04:40:49;99424.19;;;9.04;86.85
75543;BME280;64129;53.508;10.476;2022-12-29T04:43:16;99423.22;;;9.06;86.24
75543;BME280;64129;53.508;10.476;2022-12-29T04:45:59;99415.94;;;9.12;86.28
75543;BME280;64129;53.508;10.476;2022-12-29T04:48:31;99424.00;;;9.09;86.21
75543;BME280;64129;53.508;10.476;2022-12-29T04:51:09;99399.38;;;9.06;86.64
75543;BME280;64129;53.508;10.476;2022-12-29T04:53:38;99394.94;;;9.07;86.41
75543;BME280;64129;53.508;10.476;2022-12-29T04:56:05;99405.34;;;9.12;86.69
75543;BME280;64129;53.508;10.476;2022-12-29T04:58:31;99391.31;;;9.10;86.54
75543;BME280;64129;53.508;10.476;2022-12-29T05:00:58;99401.66;;;9.16;86.68
75543;BME280;64129;53.508;10.476;2022-12-29T05:03:28;99389.34;;;9.15;86.82
75543;BME280;64129;53.508;10.476;2022-12-29T05:05:55;99380.66;;;9.11;87.36
75543;BME280;64129;53.508;10.476;2022-12-29T05:08:23;99391.31;;;9.10;87.25
75543;BME280;64129;53.508;10.476;2022-12-29T05:10:53;99382.56;;;9.07;88.04
75543;BME280;64129;53.508;10.476;2022-12-29T05:13:19;99387.84;;;9.07;87.81
75543;BME280;64129;53.508;10.476;2022-12-29T05:15:50;99398.44;;;9.07;88.15
75543;BME280;64129;53.508;10.476;2022-12-29T05:18:17;99389.81;;;9.02;88.92
75543;BME280;64129;53.508;10.476;2022-12-29T05:20:45;99386.34;;;9.00;88.85
75543;BME280;64129;53.508;10.476;2022-12-29T05:23:13;99378.31;;;9.03;88.98
75543;BME280;64129;53.508;10.476;2022-12-29T05:25:40;99398.66;;;9.01;89.72
75543;BME280;64129;53.508;10.476;2022-12-29T05:28:14;99386.47;;;8.97;89.84
75543;BME280;64129;53.508;10.476;2022-12-29T05:30:49;99384.63;;;8.99;89.54
75543;BME280;64129;53.508;10.476;2022-12-29T05:33:18;99385.59;;;8.97;89.31
75543;BME280;64129;53.508;10.476;2022-12-29T05:35:47;99386.25;;;9.03;89.54
75543;BME280;64129;53.508;10.476;2022-12-29T05:38:13;99389.00;;;9.00;89.68
75543;BME280;64129;53.508;10.476;2022-12-29T05:40:41;99385.25;;;9.06;89.36
75543;BME280;64129;53.508;10.476;2022-12-29T05:43:19;99388.06;;;9.01;89.53
75543;BME280;64129;53.508;10.476;2022-12-29T05:46:05;99380.97;;;9.03;89.12
75543;BME280;64129;53.508;10.476;2022-12-29T05:48:44;99382.78;;;9.01;89.72
75543;BME280;64129;53.508;10.476;2022-12-29T05:51:23;99375.72;;;9.02;89.08
75543;BME280;64129;53.508;10.476;2022-12-29T05:53:52;99368.50;;;9.05;88.98
75543;BME280;64129;53.508;10.476;2022-12-29T05:56:18;99366.66;;;9.07;89.18
75543;BME280;64129;53.508;10.476;2022-12-29T05:58:51;99389.56;;;9.09;88.95
75543;BME280;64129;53.508;10.476;2022-12-29T06:01:18;99394.88;;;9.09;88.94
75543;BME280;64129;53.508;10.476;2022-12-29T06:03:45;99387.84;;;9.07;88.92
75543;BME280;64129;53.508;10.476;2022-12-29T06:06:13;99387.72;;;9.11;88.53
75543;BME280;64129;53.508;10.476;2022-12-29T06:08:40;99406.03;;;9.17;88.70
75543;BME280;64129;53.508;10.476;2022-12-29T06:11:08;99398.19;;;9.14;88.41
75543;BME280;64129;53.508;10.476;2022-12-29T06:13:34;99388.34;;;9.17;88.10
75543;BME280;64129;53.508;10.476;2022-12-29T06:16:01;99382.19;;;9.17;88.10
75543;BME280;64129;53.508;10.476;2022-12-29T06:18:28;99382.94;;;9.20;88.13
75543;BME280;64129;53.508;10.476;2022-12-29T06:21:00;99379.53;;;9.17;87.68
75543;BME280;64129;53.508;10.476;2022-12-29T06:23:27;99376.03;;;9.16;87.70
75543;BME280;64129;53.508;10.476;2022-12-29T06:25:54;99385.38;;;9.25;87.63
75543;BME280;64129;53.508;10.476;2022-12-29T06:28:21;99385.31;;;9.26;87.11
75543;BME280;64129;53.508;10.476;2022-12-29T06:30:48;99388.72;;;9.30;87.41
75543;BME280;64129;53.508;10.476;2022-12-29T06:33:16;99392.16;;;9.32;87.68
75543;BME280;64129;53.508;10.476;2022-12-29T06:35:43;99379.84;;;9.31;88.04
75543;BME280;64129;53.508;10.476;2022-12-29T06:38:09;99401.28;;;9.25;88.35
75543;BME280;64129;53.508;10.476;2022-12-29T06:40:36;99396.84;;;9.25;88.39
75543;BME280;64129;53.508;10.476;2022-12-29T06:43:21;99394.13;;;9.27;88.20
75543;BME280;64129;53.508;10.476;2022-12-29T06:46:00;99394.06;;;9.28;88.05
75543;BME280;64129;53.508;10.476;2022-12-29T06:48:27;99406.38;;;9.29;88.13
75543;BME280;64129;53.508;10.476;2022-12-29T06:50:53;99399.38;;;9.28;88.22
75543;BME280;64129;53.508;10.476;2022-12-29T06:53:20;99394.00;;;9.30;88.45
75543;BME280;64129;53.508;10.476;2022-12-29T06:55:46;99384.41;;;9.27;88.79
75543;BME280;64129;53.508;10.476;2022-12-29T06:58:13;99379.84;;;9.31;88.91
75543;BME280;64129;53.508;10.476;2022-12-29T07:00:39;99379.72;;;9.34;88.60
75543;BME280;64129;53.508;10.476;2022-12-29T07:03:06;99372.06;;;9.26;89.04
75543;BME280;64129;53.508;10.476;2022-12-29T07:05:32;99372.94;;;9.27;89.02
75543;BME280;64129;53.508;10.476;2022-12-29T07:07:59;99372.19;;;9.23;89.09
75543;BME280;64129;53.508;10.476;2022-12-29T07:10:26;99373.88;;;9.26;89.42
75543;BME280;64129;53.508;10.476;2022-12-29T07:12:52;99381.94;;;9.23;89.80
75543;BME280;64129;53.508;10.476;2022-12-29T07:15:19;99382.19;;;9.17;89.52
75543;BME280;64129;53.508;10.476;2022-12-29T07:17:45;99379.47;;;9.18;89.35
75543;BME280;64129;53.508;10.476;2022-12-29T07:20:12;99374.78;;;9.25;89.01
75543;BME280;64129;53.508;10.476;2022-12-29T07:22:38;99372.13;;;9.25;88.84
75543;BME280;64129;53.508;10.476;2022-12-29T07:25:05;99379.28;;;9.23;88.56
75543;BME280;64129;53.508;10.476;2022-12-29T07:27:31;99383.78;;;9.21;89.09
75543;BME280;64129;53.508;10.476;2022-12-29T07:29:58;99378.44;;;9.22;88.80
75543;BME280;64129;53.508;10.476;2022-12-29T07:32:24;99374.78;;;9.25;88.47
75543;BME280;64129;53.508;10.476;2022-12-29T07:34:51;99370.53;;;9.21;89.07
75543;BME280;64129;53.508;10.476;2022-12-29T07:37:18;99379.59;;;9.15;89.21
75543;BME280;64129;53.508;10.476;2022-12-29T07:39:45;99368.94;;;9.17;88.72
75543;BME280;64129;53.508;10.476;2022-12-29T07:42:11;99364.31;;;9.22;88.04
75543;BME280;64129;53.508;10.476;2022-12-29T07:44:42;99380.09;;;9.25;87.52
75543;BME280;64129;53.508;10.476;2022-12-29T07:47:25;99386.19;;;9.27;87.10
75543;BME280;64129;53.508;10.476;2022-12-29T07:49:52;99391.22;;;9.33;86.53
75543;BME280;64129;53.508;10.476;2022-12-29T07:52:19;99393.16;;;9.29;86.75
75543;BME280;64129;53.508;10.476;2022-12-29T07:54:45;99402.88;;;9.29;86.56
75543;BME280;64129;53.508;10.476;2022-12-29T07:57:12;99410.88;;;9.27;86.48
75543;BME280;64129;53.508;10.476;2022-12-29T07:59:39;99387.47;;;9.17;87.78
75543;BME280;64129;53.508;10.476;2022-12-29T08:02:05;99388.97;;;9.24;87.43
75543;BME280;64129;53.508;10.476;2022-12-29T08:04:32;99390.81;;;9.22;87.51
75543;BME280;64129;53.508;10.476;2022-12-29T08:06:58;99408.44;;;9.23;88.15
75543;BME280;64129;53.508;10.476;2022-12-29T08:09:26;99402.13;;;9.25;88.25
75543;BME280;64129;53.508;10.476;2022-12-29T08:11:53;99429.59;;;9.46;87.52
75543;BME280;64129;53.508;10.476;2022-12-29T08:14:20;99428.72;;;9.46;88.07
75543;BME280;64129;53.508;10.476;2022-12-29T08:16:46;99414.84;;;9.39;87.97
75543;BME280;64129;53.508;10.476;2022-12-29T08:19:13;99377.00;;;9.57;87.40
75543;BME280;64129;53.508;10.476;2022-12-29T08:21:40;99389.97;;;9.43;87.84
75543;BME280;64129;53.508;10.476;2022-12-29T08:24:08;99396.84;;;9.47;87.92
75543;BME280;64129;53.508;10.476;2022-12-29T08:26:35;99408.69;;;9.38;88.48
75543;BME280;64129;53.508;10.476;2022-12-29T08:29:01;99416.75;;;9.35;88.58
75543;BME280;64129;53.508;10.476;2022-12-29T08:31:28;99419.34;;;9.37;88.54
75543;BME280;64129;53.508;10.476;2022-12-29T08:33:54;99420.25;;;9.36;87.99
75543;BME280;64129;53.508;10.476;2022-12-29T08:36:21;99417.06;;;9.28;88.35
75543;BME280;64129;53.508;10.476;2022-12-29T08:38:47;99424.19;;;9.26;88.11
75543;BME280;64129;53.508;10.476;2022-12-29T08:41:14;99429.63;;;9.23;88.62
75543;BME280;64129;53.508;10.476;2022-12-29T08:43:40;99430.53;;;9.22;88.47
75543;BME280;64129;53.508;10.476;2022-12-29T08:46:07;99425.50;;;9.16;88.37
75543;BME280;64129;53.508;10.476;2022-12-29T08:48:33;99426.28;;;9.18;88.45
75543;BME280;64129;53.508;10.476;2022-12-29T08:51:00;99432.56;;;9.15;87.90
75543;BME280;64129;53.508;10.476;2022-12-29T08:53:26;99438.06;;;9.11;88.04
75543;BME280;64129;53.508;10.476;2022-12-29T08:55:58;99435.28;;;9.14;88.02
75543;BME280;64129;53.508;10.476;2022-12-29T08:58:30;99442.31;;;9.15;87.46
75543;BME280;64129;53.508;10.476;2022-12-29T09:00:57;99422.78;;;9.17;87.16
75543;BME280;64129;53.508;10.476;2022-12-29T09:03:24;99435.03;;;9.20;87.38
75543;BME280;64129;53.508;10.476;2022-12-29T09:06:11;99444.53;;;9.25;87.71
75543;BME280;64129;53.508;10.476;2022-12-29T09:08:37;99462.94;;;9.28;87.23
75543;BME280;64129;53.508;10.476;2022-12-29T09:11:14;99455.75;;;9.32;86.63
75543;BME280;64129;53.508;10.476;2022-12-29T09:13:41;99457.59;;;9.30;86.72
75543;BME280;64129;53.508;10.476;2022-12-29T09:16:08;99450.44;;;9.32;86.80
75543;BME280;64129;53.508;10.476;2022-12-29T09:18:34;99461.09;;;9.30;86.05
75543;BME280;64129;53.508;10.476;2022-12-29T09:21:02;99452.16;;;9.33;86.75
75543;BME280;64129;53.508;10.476;2022-12-29T09:23:29;99454.19;;;9.26;86.66
75543;BME280;64129;53.508;10.476;2022-12-29T09:25:56;99459.09;;;9.37;85.80
75543;BME280;64129;53.508;10.476;2022-12-29T09:28:23;99454.59;;;9.39;85.06
75543;BME280;64129;53.508;10.476;2022-12-29T09:30:50;99444.94;;;9.38;85.71
75543;BME280;64129;53.508;10.476;2022-12-29T09:33:17;99455.28;;;9.44;84.56
75543;BME280;64129;53.508;10.476;2022-12-29T09:35:45;99466.13;;;9.38;84.75
75543;BME280;64129;53.508;10.476;2022-12-29T09:38:16;99476.81;;;9.35;84.98
75543;BME280;64129;53.508;10.476;2022-12-29T09:40:50;99461.56;;;9.42;84.62
75543;BME280;64129;53.508;10.476;2022-12-29T09:48:48;99472.41;;;9.57;81.83
75543;BME280;64129;53.508;10.476;2022-12-29T09:51:21;99464.41;;;9.59;81.73
75543;BME280;64129;53.508;10.476;2022-12-29T09:54:04;99472.91;;;9.45;82.48
75543;BME280;64129;53.508;10.476;2022-12-29T09:56:35;99473.34;;;9.56;81.65
75543;BME280;64129;53.508;10.476;2022-12-29T09:59:15;99466.84;;;9.63;80.46
75543;BME280;64129;53.508;10.476;2022-12-29T10:04:15;99474.56;;;9.69;80.53
75543;BME280;64129;53.508;10.476;2022-12-29T10:06:46;99471.22;;;9.64;82.11
75543;BME280;64129;53.508;10.476;2022-12-29T10:09:48;99477.47;;;9.63;80.85
75543;BME280;64129;53.508;10.476;2022-12-29T10:15:14;99480.19;;;9.62;81.11
75543;BME280;64129;53.508;10.476;2022-12-29T10:17:54;99478.44;;;9.61;79.99
75543;BME280;64129;53.508;10.476;2022-12-29T10:20:48;99466.84;;;9.63;79.87
75543;BME280;64129;53.508;10.476;2022-12-29T10:25:45;99464.88;;;9.68;80.59
75543;BME280;64129;53.508;10.476;2022-12-29T10:28:20;99466.50;;;9.73;79.40
75543;BME280;64129;53.508;10.476;2022-12-29T10:30:48;99479.56;;;9.77;78.96
75543;BME280;64129;53.508;10.476;2022-12-29T10:33:19;99471.69;;;9.76;78.67
75543;BME280;64129;53.508;10.476;2022-12-29T10:35:50;99498.31;;;9.73;80.05
75543;BME280;64129;53.508;10.476;2022-12-29T10:38:24;99478.84;;;9.74;80.11
75543;BME280;64129;53.508;10.476;2022-12-29T10:41:15;99475.13;;;9.78;79.55
75543;BME280;64129;53.508;10.476;2022-12-29T10:43:49;99482.41;;;9.73;79.95
75543;BME280;64129;53.508;10.476;2022-12-29T10:46:21;99492.50;;;9.85;79.27
75543;BME280;64129;53.508;10.476;2022-12-29T10:48:49;99481.66;;;9.91;79.26
75543;BME280;64129;53.508;10.476;2022-12-29T10:51:25;99483.97;;;9.98;77.75
75543;BME280;64129;53.508;10.476;2022-12-29T10:53:59;99479.41;;;10.02;79.37
75543;BME280;64129;53.508;10.476;2022-12-29T10:56:35;99468.66;;;10.05;78.65
75543;BME280;64129;53.508;10.476;2022-12-29T10:59:16;99479.41;;;10.02;78.01
75543;BME280;64129;53.508;10.476;2022-12-29T11:01:58;99477.31;;;10.10;77.77
75543;BME280;64129;53.508;10.476;2022-12-29T11:07:08;99484.00;;;10.20;77.24
75543;BME280;64129;53.508;10.476;2022-12-29T11:09:41;99484.00;;;10.20;76.90
75543;BME280;64129;53.508;10.476;2022-12-29T11:12:28;99475.34;;;10.15;76.74
75543;BME280;64129;53.508;10.476;2022-12-29T11:18:03;99477.78;;;10.42;76.27
75543;BME280;64129;53.508;10.476;2022-12-29T11:20:37;99478.41;;;10.26;75.76
75543;BME280;64129;53.508;10.476;2022-12-29T11:23:21;99471.53;;;10.22;75.64
75543;BME280;64129;53.508;10.476;2022-12-29T11:28:46;99479.59;;;10.19;75.17
75543;BME280;64129;53.508;10.476;2022-12-29T11:31:17;99471.25;;;10.28;74.76
75543;BME280;64129;53.508;10.476;2022-12-29T11:33:44;99484.00;;;10.20;73.93
75543;BME280;64129;53.508;10.476;2022-12-29T11:36:16;99477.44;;;10.29;76.46
75543;BME280;64129;53.508;10.476;2022-12-29T11:38:48;99480.41;;;10.21;74.77
75543;BME280;64129;53.508;10.476;2022-12-29T11:41:28;99476.47;;;10.10;74.39
75543;BME280;64129;53.508;10.476;2022-12-29T11:43:58;99483.56;;;10.09;74.23
75543;BME280;64129;53.508;10.476;2022-12-29T11:46:28;99495.09;;;10.08;75.23
75543;BME280;64129;53.508;10.476;2022-12-29T11:48:56;99473.97;;;10.05;77.00
75543;BME280;64129;53.508;10.476;2022-12-29T11:51:43;99481.03;;;10.06;76.37
75543;BME280;64129;53.508;10.476;2022-12-29T11:54:27;99465.66;;;10.14;76.20
75543;BME280;64129;53.508;10.476;2022-12-29T11:56:57;99484.50;;;10.08;75.02
75543;BME280;64129;53.508;10.476;2022-12-29T12:01:54;99478.78;;;10.17;75.64
75543;BME280;64129;53.508;10.476;2022-12-29T12:04:23;99475.09;;;10.21;76.66
75543;BME280;64129;53.508;10.476;2022-12-29T12:12:01;99489.59;;;9.91;75.64
75543;BME280;64129;53.508;10.476;2022-12-29T12:14:37;99499.03;;;9.98;76.73
75543;BME280;64129;53.508;10.476;2022-12-29T12:17:21;99490.53;;;9.90;76.46
75543;BME280;64129;53.508;10.476;2022-12-29T12:20:02;99492.66;;;9.82;77.20
75543;BME280;64129;53.508;10.476;2022-12-29T12:22:37;99499.94;;;9.77;77.07
75543;BME280;64129;53.508;10.476;2022-12-29T12:25:11;99492.50;;;9.85;79.69
75543;BME280;64129;53.508;10.476;2022-12-29T12:28:05;99498.19;;;9.76;78.59
75543;BME280;64129;53.508;10.476;2022-12-29T12:30:47;99499.66;;;9.83;79.50
75543;BME280;64129;53.508;10.476;2022-12-29T12:41:25;99488.41;;;9.98;78.04
75543;BME280;64129;53.508;10.476;2022-12-29T12:44:27;99484.34;;;10.11;77.83
75543;BME280;64129;53.508;10.476;2022-12-29T13:01:42;99489.66;;;10.11;76.93
75543;BME280;64129;53.508;10.476;2022-12-29T13:18:06;99508.53;;;10.25;71.64
75543;BME280;64129;53.508;10.476;2022-12-29T13:20:51;99504.50;;;10.37;70.04
75543;BME280;64129;53.508;10.476;2022-12-29T13:23:46;99520.75;;;10.29;69.93
75543;BME280;64129;53.508;10.476;2022-12-29T13:26:42;99501.50;;;10.24;72.60
75543;BME280;64129;53.508;10.476;2022-12-29T13:38:01;99527.19;;;10.24;69.74
75543;BME280;64129;53.508;10.476;2022-12-29T13:40:34;99533.34;;;10.24;69.69
75543;BME280;64129;53.508;10.476;2022-12-29T13:43:02;99523.66;;;10.23;69.79
75543;BME280;64129;53.508;10.476;2022-12-29T13:45:31;99521.13;;;10.20;70.97
75543;BME280;64129;53.508;10.476;2022-12-29T13:48:08;99549.44;;;10.20;71.22
75543;BME280;64129;53.508;10.476;2022-12-29T13:50:39;99515.56;;;10.26;70.32
75543;BME280;64129;53.508;10.476;2022-12-29T13:53:19;99539.38;;;10.28;69.58
75543;BME280;64129;53.508;10.476;2022-12-29T13:56:17;99537.78;;;10.24;70.42
75543;BME280;64129;53.508;10.476;2022-12-29T13:58:54;99551.13;;;10.22;71.40
75543;BME280;64129;53.508;10.476;2022-12-29T14:01:33;99555.50;;;10.23;70.40
75543;BME280;64129;53.508;10.476;2022-12-29T14:04:13;99557.44;;;10.18;70.39
75543;BME280;64129;53.508;10.476;2022-12-29T14:06:41;99554.00;;;10.16;72.80
75543;BME280;64129;53.508;10.476;2022-12-29T14:09:39;99563.88;;;10.13;71.57
75543;BME280;64129;53.508;10.476;2022-12-29T14:12:29;99543.94;;;10.02;72.43
75543;BME280;64129;53.508;10.476;2022-12-29T14:17:42;99572.88;;;10.09;71.35
75543;BME280;64129;53.508;10.476;2022-12-29T14:20:19;99574.78;;;10.05;72.04
75543;BME280;64129;53.508;10.476;2022-12-29T14:25:54;99599.81;;;9.98;74.06
75543;BME280;64129;53.508;10.476;2022-12-29T14:28:31;99618.19;;;9.81;76.55
75543;BME280;64129;53.508;10.476;2022-12-29T14:31:00;99606.25;;;9.69;76.82
75543;BME280;64129;53.508;10.476;2022-12-29T14:33:32;99618.31;;;9.78;78.12
75543;BME280;64129;53.508;10.476;2022-12-29T14:36:18;99626.09;;;9.59;78.83
75543;BME280;64129;53.508;10.476;2022-12-29T14:38:45;99638.38;;;9.36;81.19
75543;BME280;64129;53.508;10.476;2022-12-29T14:41:18;99637.63;;;9.33;81.16
75543;BME280;64129;53.508;10.476;2022-12-29T14:44:19;99643.16;;;9.27;82.53
75543;BME280;64129;53.508;10.476;2022-12-29T14:46:59;99639.47;;;9.31;81.63
75543;BME280;64129;53.508;10.476;2022-12-29T14:49:31;99650.19;;;9.28;82.79
75543;BME280;64129;53.508;10.476;2022-12-29T14:52:18;99656.03;;;9.13;83.02
75543;BME280;64129;53.508;10.476;2022-12-29T14:57:33;99676.31;;;9.14;82.46
75543;BME280;64129;53.508;10.476;2022-12-29T15:00:26;99664.56;;;9.21;82.07
75543;BME280;64129;53.508;10.476;2022-12-29T15:05:56;99689.66;;;9.11;83.47
75543;BME280;64129;53.508;10.476;2022-12-29T15:08:26;99698.94;;;8.97;83.11
75543;BME280;64129;53.508;10.476;2022-12-29T15:11:14;99703.50;;;8.66;83.89
75543;BME280;64129;53.508;10.476;2022-12-29T15:13:43;99706.53;;;8.82;84.15
75543;BME280;64129;53.508;10.476;2022-12-29T15:18:48;99712.28;;;8.68;83.91
75543;BME280;64129;53.508;10.476;2022-12-29T15:21:15;99711.31;;;8.70;84.10
75543;BME280;64129;53.508;10.476;2022-12-29T15:23:43;99714.09;;;8.66;83.65